sensor_id;sensor_type;location;lat;lon;timestamp;pressure;altitude;pressure_sealevel;temperature;humidity
21828;BME280;11076;47.942;11.804;2022-12-07T00:04:59;94229.72;;;2.18;100.00
21828;BME280;11076;47.942;11.804;2022-12-07T00:10:02;94219.53;;;2.15;100.00
21828;BME280;11076;47.942;11.804;2022-12-07T00:15:04;94219.53;;;2.15;100.00
21828;BME280;11076;47.942;11.804;2022-12-07T00:20:07;94216.84;;;2.24;100.00
21828;BME280;11076;47.942;11.804;2022-12-07T00:25:10;94211.91;;;2.21;100.00
21828;BME280;11076;47.942;11.804;2022-12-07T00:30:12;94209.22;;;2.29;100.00
21828;BME280;11076;47.942;11.804;2022-12-07T00:35:14;94213.19;;;2.25;100.00
21828;BME280;11076;47.942;11.804;2022-12-07T00:40:17;94207.63;;;2.19;100.00
21828;BME280;11076;47.942;11.804;2022-12-07T00:45:19;94211.91;;;2.21;100.00
21828;BME280;11076;47.942;11.804;2022-12-07T00:50:21;94208.91;;;2.32;100.00
21828;BME280;11076;47.942;11.804;2022-12-07T00:55:24;94213.84;;;2.35;100.00
21828;BME280;11076;47.942;11.804;2022-12-07T01:00:26;94210.41;;;2.26;100.00
21828;BME280;11076;47.942;11.804;2022-12-07T01:05:29;94219.13;;;2.27;100.00
21828;BME280;11076;47.942;11.804;2022-12-07T01:10:31;94212.88;;;2.28;100.00
21828;BME280;11076;47.942;11.804;2022-12-07T01:15:34;94204.44;;;2.32;100.00
21828;BME280;11076;47.942;11.804;2022-12-07T01:20:37;94210.28;;;2.19;100.00
21828;BME280;11076;47.942;11.804;2022-12-07T01:25:39;94205.59;;;2.30;100.00
21828;BME280;11076;47.942;11.804;2022-12-07T01:30:41;94204.78;;;2.29;100.00
21828;BME280;11076;47.942;11.804;2022-12-07T01:35:44;94208.19;;;2.38;100.00
21828;BME280;11076;47.942;11.804;2022-12-07T01:40:54;94208.56;;;2.27;100.00
21828;BME280;11076;47.942;11.804;2022-12-07T01:45:56;94209.91;;;2.23;100.00
21828;BME280;11076;47.942;11.804;2022-12-07T01:51:03;94206.66;;;2.12;100.00
21828;BME280;11076;47.942;11.804;2022-12-07T01:56:11;94202.88;;;2.15;100.00
21828;BME280;11076;47.942;11.804;2022-12-07T02:01:15;94191.31;;;2.16;100.00
21828;BME280;11076;47.942;11.804;2022-12-07T02:06:20;94196.13;;;2.12;100.00
21828;BME280;11076;47.942;11.804;2022-12-07T02:11:24;94200.06;;;2.16;100.00
21828;BME280;11076;47.942;11.804;2022-12-07T02:16:51;94197.47;;;2.08;100.00
21828;BME280;11076;47.942;11.804;2022-12-07T02:32:26;94192.19;;;2.08;100.00
21828;BME280;11076;47.942;11.804;2022-12-07T02:42:47;94183.75;;;2.13;100.00
21828;BME280;11076;47.942;11.804;2022-12-07T02:47:53;94179.31;;;2.13;100.00
21828;BME280;11076;47.942;11.804;2022-12-07T02:52:57;94180.13;;;2.14;100.00
21828;BME280;11076;47.942;11.804;2022-12-07T02:58:30;94172.88;;;2.16;100.00
21828;BME280;11076;47.942;11.804;2022-12-07T03:03:36;94181.16;;;2.05;100.00
21828;BME280;11076;47.942;11.804;2022-12-07T03:14:12;94180.94;;;2.14;100.00
21828;BME280;11076;47.942;11.804;2022-12-07T03:19:19;94180.81;;;2.08;100.00
21828;BME280;11076;47.942;11.804;2022-12-07T03:24:31;94176.59;;;1.90;100.00
21828;BME280;11076;47.942;11.804;2022-12-07T03:29:38;94174.16;;;1.81;100.00
21828;BME280;11076;47.942;11.804;2022-12-07T03:45:19;94167.91;;;1.82;100.00
21828;BME280;11076;47.942;11.804;2022-12-07T03:50:48;94164.75;;;1.86;100.00
21828;BME280;11076;47.942;11.804;2022-12-07T03:55:54;94165.13;;;1.83;100.00
21828;BME280;11076;47.942;11.804;2022-12-07T04:00:56;94163.59;;;1.89;100.00
21828;BME280;11076;47.942;11.804;2022-12-07T04:05:59;94160.41;;;2.02;100.00
21828;BME280;11076;47.942;11.804;2022-12-07T04:11:02;94151.97;;;2.06;100.00
21828;BME280;11076;47.942;11.804;2022-12-07T04:16:04;94155.47;;;1.98;100.00
21828;BME280;11076;47.942;11.804;2022-12-07T04:21:06;94157.63;;;1.95;100.00
21828;BME280;11076;47.942;11.804;2022-12-07T04:26:09;94152.53;;;1.93;100.00
21828;BME280;11076;47.942;11.804;2022-12-07T04:31:11;94157.34;;;1.90;100.00
21828;BME280;11076;47.942;11.804;2022-12-07T04:36:14;94157.94;;;2.00;100.00
21828;BME280;11076;47.942;11.804;2022-12-07T04:41:16;94164.56;;;1.96;100.00
21828;BME280;11076;47.942;11.804;2022-12-07T04:46:18;94162.88;;;2.03;100.00
21828;BME280;11076;47.942;11.804;2022-12-07T04:51:28;94158.44;;;2.04;100.00
21828;BME280;11076;47.942;11.804;2022-12-07T04:56:31;94156.72;;;2.11;100.00
21828;BME280;11076;47.942;11.804;2022-12-07T05:01:34;94156.28;;;2.07;100.00
21828;BME280;11076;47.942;11.804;2022-12-07T05:06:36;94148.47;;;2.14;100.00
21828;BME280;11076;47.942;11.804;2022-12-07T05:11:38;94143.53;;;2.19;100.00
21828;BME280;11076;47.942;11.804;2022-12-07T05:16:42;94156.72;;;2.19;100.00
21828;BME280;11076;47.942;11.804;2022-12-07T05:21:44;94154.56;;;2.14;100.00
21828;BME280;11076;47.942;11.804;2022-12-07T05:26:47;94149.66;;;2.11;100.00
21828;BME280;11076;47.942;11.804;2022-12-07T05:31:49;94154.56;;;2.14;100.00
21828;BME280;11076;47.942;11.804;2022-12-07T05:36:52;94154.53;;;1.91;100.00
21828;BME280;11076;47.942;11.804;2022-12-07T05:41:54;94158.34;;;1.81;100.00
21828;BME280;11076;47.942;11.804;2022-12-07T05:47:15;94152.13;;;1.73;100.00
21828;BME280;11076;47.942;11.804;2022-12-07T05:52:18;94157.44;;;1.65;100.00
21828;BME280;11076;47.942;11.804;2022-12-07T05:57:20;94153.03;;;1.49;100.00
21828;BME280;11076;47.942;11.804;2022-12-07T06:02:22;94155.66;;;1.41;100.00
21828;BME280;11076;47.942;11.804;2022-12-07T06:07:25;94162.44;;;1.35;100.00
21828;BME280;11076;47.942;11.804;2022-12-07T06:12:27;94168.06;;;1.24;100.00
21828;BME280;11076;47.942;11.804;2022-12-07T06:17:36;94173.66;;;1.21;100.00
21828;BME280;11076;47.942;11.804;2022-12-07T06:22:38;94177.31;;;1.04;100.00
21828;BME280;11076;47.942;11.804;2022-12-07T06:27:41;94179.75;;;0.97;100.00
21828;BME280;11076;47.942;11.804;2022-12-07T06:32:43;94185.00;;;1.05;100.00
21828;BME280;11076;47.942;11.804;2022-12-07T06:37:45;94183.88;;;1.08;100.00
21828;BME280;11076;47.942;11.804;2022-12-07T06:42:48;94185.50;;;1.09;100.00
21828;BME280;11076;47.942;11.804;2022-12-07T06:47:50;94192.75;;;1.07;100.00
21828;BME280;11076;47.942;11.804;2022-12-07T06:52:52;94193.41;;;1.01;100.00
21828;BME280;11076;47.942;11.804;2022-12-07T06:57:55;94196.69;;;1.19;100.00
21828;BME280;11076;47.942;11.804;2022-12-07T07:02:57;94208.88;;;1.20;100.00
21828;BME280;11076;47.942;11.804;2022-12-07T07:08:00;94203.44;;;1.38;100.00
21828;BME280;11076;47.942;11.804;2022-12-07T07:13:22;94214.44;;;1.50;100.00
21828;BME280;11076;47.942;11.804;2022-12-07T07:18:25;94209.84;;;1.44;100.00
21828;BME280;11076;47.942;11.804;2022-12-07T07:23:27;94213.13;;;1.46;100.00
21828;BME280;11076;47.942;11.804;2022-12-07T07:28:30;94213.63;;;1.49;100.00
21828;BME280;11076;47.942;11.804;2022-12-07T07:33:32;94222.66;;;1.55;100.00
21828;BME280;11076;47.942;11.804;2022-12-07T07:38:34;94229.91;;;1.53;100.00
21828;BME280;11076;47.942;11.804;2022-12-07T07:43:37;94228.78;;;1.55;100.00
21828;BME280;11076;47.942;11.804;2022-12-07T07:48:39;94230.72;;;1.70;100.00
21828;BME280;11076;47.942;11.804;2022-12-07T07:53:41;94229.53;;;1.72;100.00
21828;BME280;11076;47.942;11.804;2022-12-07T07:58:44;94236.13;;;1.76;100.00
21828;BME280;11076;47.942;11.804;2022-12-07T08:03:47;94239.78;;;1.67;100.00
21828;BME280;11076;47.942;11.804;2022-12-07T08:08:49;94239.13;;;1.65;100.00
21828;BME280;11076;47.942;11.804;2022-12-07T08:13:51;94243.72;;;1.63;100.00
21828;BME280;11076;47.942;11.804;2022-12-07T08:18:54;94243.72;;;1.79;100.00
21828;BME280;11076;47.942;11.804;2022-12-07T08:23:57;94241.56;;;1.83;100.00
21828;BME280;11076;47.942;11.804;2022-12-07T08:28:59;94240.88;;;1.89;100.00
21828;BME280;11076;47.942;11.804;2022-12-07T08:34:01;94244.63;;;1.95;100.00
21828;BME280;11076;47.942;11.804;2022-12-07T08:39:04;94242.31;;;2.00;100.00
21828;BME280;11076;47.942;11.804;2022-12-07T08:44:26;94245.75;;;2.09;100.00
21828;BME280;11076;47.942;11.804;2022-12-07T08:49:33;94244.94;;;2.08;100.00
21828;BME280;11076;47.942;11.804;2022-12-07T08:54:39;94255.41;;;2.25;100.00
21828;BME280;11076;47.942;11.804;2022-12-07T08:59:42;94252.25;;;2.37;100.00
21828;BME280;11076;47.942;11.804;2022-12-07T09:04:44;94253.22;;;2.36;100.00
21828;BME280;11076;47.942;11.804;2022-12-07T09:09:46;94241.31;;;2.49;100.00
21828;BME280;11076;47.942;11.804;2022-12-07T09:14:49;94252.19;;;2.46;100.00
21828;BME280;11076;47.942;11.804;2022-12-07T09:19:51;94245.47;;;2.43;100.00
21828;BME280;11076;47.942;11.804;2022-12-07T09:24:53;94240.25;;;2.58;100.00
21828;BME280;11076;47.942;11.804;2022-12-07T09:29:56;94234.44;;;2.71;100.00
21828;BME280;11076;47.942;11.804;2022-12-07T09:34:58;94229.78;;;2.73;100.00
21828;BME280;11076;47.942;11.804;2022-12-07T09:40:01;94233.31;;;2.88;100.00
21828;BME280;11076;47.942;11.804;2022-12-07T09:45:13;94226.28;;;3.04;100.00
21828;BME280;11076;47.942;11.804;2022-12-07T09:50:19;94226.00;;;2.98;100.00
21828;BME280;11076;47.942;11.804;2022-12-07T09:55:28;94222.72;;;2.96;100.00
21828;BME280;11076;47.942;11.804;2022-12-07T10:00:31;94216.59;;;2.96;100.00
21828;BME280;11076;47.942;11.804;2022-12-07T10:05:40;94207.88;;;3.10;100.00
21828;BME280;11076;47.942;11.804;2022-12-07T10:10:45;94205.91;;;3.12;100.00
21828;BME280;11076;47.942;11.804;2022-12-07T10:15:55;94197.72;;;3.22;100.00
21828;BME280;11076;47.942;11.804;2022-12-07T10:26:27;94207.44;;;3.07;100.00
21828;BME280;11076;47.942;11.804;2022-12-07T10:31:30;94199.72;;;3.20;100.00
21828;BME280;11076;47.942;11.804;2022-12-07T10:36:37;94189.66;;;3.38;100.00
21828;BME280;11076;47.942;11.804;2022-12-07T10:42:00;94186.19;;;3.38;100.00
21828;BME280;11076;47.942;11.804;2022-12-07T10:47:13;94182.38;;;3.41;100.00
21828;BME280;11076;47.942;11.804;2022-12-07T11:03:05;94180.13;;;3.52;99.27
21828;BME280;11076;47.942;11.804;2022-12-07T11:08:34;94180.00;;;3.46;100.00
21828;BME280;11076;47.942;11.804;2022-12-07T11:14:02;94166.44;;;3.49;99.58
21828;BME280;11076;47.942;11.804;2022-12-07T11:19:43;94165.41;;;3.50;98.60
21828;BME280;11076;47.942;11.804;2022-12-07T11:25:16;94153.09;;;3.42;98.05
21828;BME280;11076;47.942;11.804;2022-12-07T11:30:37;94148.22;;;3.69;96.92
21828;BME280;11076;47.942;11.804;2022-12-07T11:40:57;94133.34;;;3.83;95.15
21828;BME280;11076;47.942;11.804;2022-12-07T11:46:15;94126.06;;;3.85;94.59
21828;BME280;11076;47.942;11.804;2022-12-07T11:51:20;94137.91;;;3.74;93.83
21828;BME280;11076;47.942;11.804;2022-12-07T11:56:26;94129.25;;;3.80;92.84
21828;BME280;11076;47.942;11.804;2022-12-07T12:07:19;94122.25;;;3.72;93.13
21828;BME280;11076;47.942;11.804;2022-12-07T12:19:21;94117.19;;;3.77;93.02
21828;BME280;11076;47.942;11.804;2022-12-07T12:24:28;94112.41;;;3.66;92.66
21828;BME280;11076;47.942;11.804;2022-12-07T12:29:36;94100.34;;;3.78;93.09
21828;BME280;11076;47.942;11.804;2022-12-07T12:34:40;94092.47;;;4.00;91.80
21828;BME280;11076;47.942;11.804;2022-12-07T12:45:21;94097.34;;;3.67;90.26
21828;BME280;11076;47.942;11.804;2022-12-07T13:00:46;94086.09;;;3.79;90.84
21828;BME280;11076;47.942;11.804;2022-12-07T13:11:32;94078.34;;;3.93;91.32
21828;BME280;11076;47.942;11.804;2022-12-07T13:16:38;94076.66;;;3.70;90.97
21828;BME280;11076;47.942;11.804;2022-12-07T13:21:42;94080.47;;;3.83;91.48
21828;BME280;11076;47.942;11.804;2022-12-07T13:26:45;94079.94;;;3.72;91.57
21828;BME280;11076;47.942;11.804;2022-12-07T13:31:55;94076.41;;;3.50;90.04
21828;BME280;11076;47.942;11.804;2022-12-07T13:37:10;94078.78;;;3.30;91.39
21828;BME280;11076;47.942;11.804;2022-12-07T13:42:34;94076.00;;;3.53;91.05
21828;BME280;11076;47.942;11.804;2022-12-07T13:47:42;94064.63;;;3.53;91.44
21828;BME280;11076;47.942;11.804;2022-12-07T13:52:46;94072.56;;;3.53;91.63
21828;BME280;11076;47.942;11.804;2022-12-07T13:57:52;94074.13;;;3.62;91.88
21828;BME280;11076;47.942;11.804;2022-12-07T14:08:02;94073.94;;;3.49;92.91
21828;BME280;11076;47.942;11.804;2022-12-07T14:18:39;94071.66;;;3.31;93.74
21828;BME280;11076;47.942;11.804;2022-12-07T14:23:42;94074.38;;;3.23;94.58
21828;BME280;11076;47.942;11.804;2022-12-07T14:28:45;94074.00;;;3.26;94.53
21828;BME280;11076;47.942;11.804;2022-12-07T14:33:47;94076.19;;;3.22;94.70
21828;BME280;11076;47.942;11.804;2022-12-07T14:38:49;94066.81;;;3.05;95.56
21828;BME280;11076;47.942;11.804;2022-12-07T14:43:55;94068.22;;;2.92;96.40
21828;BME280;11076;47.942;11.804;2022-12-07T14:49:08;94054.47;;;2.82;96.65
21828;BME280;11076;47.942;11.804;2022-12-07T14:54:31;94054.84;;;2.79;96.90
21828;BME280;11076;47.942;11.804;2022-12-07T14:59:34;94044.59;;;2.61;97.16
21828;BME280;11076;47.942;11.804;2022-12-07T15:04:39;94050.94;;;2.52;97.74
21828;BME280;11076;47.942;11.804;2022-12-07T15:09:41;94041.56;;;2.49;98.33
21828;BME280;11076;47.942;11.804;2022-12-07T15:14:45;94048.78;;;2.32;98.58
21828;BME280;11076;47.942;11.804;2022-12-07T15:19:47;94045.94;;;2.19;98.50
21828;BME280;11076;47.942;11.804;2022-12-07T15:24:49;94052.69;;;1.90;98.71
21828;BME280;11076;47.942;11.804;2022-12-07T15:29:52;94046.56;;;1.67;98.42
21828;BME280;11076;47.942;11.804;2022-12-07T15:34:55;94050.13;;;1.43;99.43
21828;BME280;11076;47.942;11.804;2022-12-07T15:39:58;94049.19;;;1.27;99.67
21828;BME280;11076;47.942;11.804;2022-12-07T15:45:04;94043.63;;;1.22;100.00
21828;BME280;11076;47.942;11.804;2022-12-07T15:50:10;94044.94;;;1.26;100.00
21828;BME280;11076;47.942;11.804;2022-12-07T15:55:13;94042.63;;;1.31;100.00
21828;BME280;11076;47.942;11.804;2022-12-07T16:00:16;94036.69;;;1.21;100.00
21828;BME280;11076;47.942;11.804;2022-12-07T16:05:19;94034.03;;;1.29;100.00
21828;BME280;11076;47.942;11.804;2022-12-07T16:10:21;94043.91;;;1.27;100.00
21828;BME280;11076;47.942;11.804;2022-12-07T16:15:24;94032.72;;;1.25;100.00
21828;BME280;11076;47.942;11.804;2022-12-07T16:20:27;94043.63;;;1.22;100.00
21828;BME280;11076;47.942;11.804;2022-12-07T16:25:29;94042.94;;;1.28;100.00
21828;BME280;11076;47.942;11.804;2022-12-07T16:30:32;94036.66;;;1.37;100.00
21828;BME280;11076;47.942;11.804;2022-12-07T16:35:38;94042.28;;;1.26;100.00
21828;BME280;11076;47.942;11.804;2022-12-07T16:40:43;94027.47;;;1.25;100.00
21828;BME280;11076;47.942;11.804;2022-12-07T16:45:46;94023.50;;;1.37;100.00
21828;BME280;11076;47.942;11.804;2022-12-07T16:50:52;94024.47;;;1.36;100.00
21828;BME280;11076;47.942;11.804;2022-12-07T16:55:55;94035.38;;;1.33;100.00
21828;BME280;11076;47.942;11.804;2022-12-07T17:00:58;94030.09;;;1.33;100.00
21828;BME280;11076;47.942;11.804;2022-12-07T17:06:00;94022.03;;;1.27;100.00
21828;BME280;11076;47.942;11.804;2022-12-07T17:11:09;94029.78;;;1.28;100.00
21828;BME280;11076;47.942;11.804;2022-12-07T17:16:11;94030.22;;;1.40;100.00
21828;BME280;11076;47.942;11.804;2022-12-07T17:21:14;94022.97;;;1.42;100.00
21828;BME280;11076;47.942;11.804;2022-12-07T17:26:21;94024.25;;;1.46;100.00
21828;BME280;11076;47.942;11.804;2022-12-07T17:31:24;94014.41;;;1.40;100.00
21828;BME280;11076;47.942;11.804;2022-12-07T17:36:29;94018.50;;;1.43;100.00
21828;BME280;11076;47.942;11.804;2022-12-07T17:41:32;94022.28;;;1.48;100.00
21828;BME280;11076;47.942;11.804;2022-12-07T17:46:54;94021.47;;;1.48;100.00
21828;BME280;11076;47.942;11.804;2022-12-07T17:51:58;94025.34;;;1.60;100.00
21828;BME280;11076;47.942;11.804;2022-12-07T17:57:19;94014.44;;;1.63;100.00
21828;BME280;11076;47.942;11.804;2022-12-07T18:02:22;94009.38;;;1.62;100.00
21828;BME280;11076;47.942;11.804;2022-12-07T18:07:24;94013.47;;;1.64;100.00
21828;BME280;11076;47.942;11.804;2022-12-07T18:12:27;94004.75;;;1.64;100.00
21828;BME280;11076;47.942;11.804;2022-12-07T18:17:29;94002.16;;;1.55;100.00
21828;BME280;11076;47.942;11.804;2022-12-07T18:22:32;93998.84;;;1.62;100.00
21828;BME280;11076;47.942;11.804;2022-12-07T18:27:34;93996.19;;;1.62;100.00
21828;BME280;11076;47.942;11.804;2022-12-07T18:32:36;93997.31;;;1.67;100.00
21828;BME280;11076;47.942;11.804;2022-12-07T18:37:40;94001.94;;;1.65;100.00
21828;BME280;11076;47.942;11.804;2022-12-07T18:42:42;93996.69;;;1.65;100.00
21828;BME280;11076;47.942;11.804;2022-12-07T18:47:44;93997.50;;;1.66;100.00
21828;BME280;11076;47.942;11.804;2022-12-07T18:52:47;93999.97;;;1.67;100.00
21828;BME280;11076;47.942;11.804;2022-12-07T18:57:49;94000.94;;;1.66;100.00
21828;BME280;11076;47.942;11.804;2022-12-07T19:02:52;93990.50;;;1.50;100.00
21828;BME280;11076;47.942;11.804;2022-12-07T19:07:55;93991.63;;;1.55;100.00
21828;BME280;11076;47.942;11.804;2022-12-07T19:12:57;93992.44;;;1.56;100.00
21828;BME280;11076;47.942;11.804;2022-12-07T19:18:00;93990.78;;;1.55;100.00
21828;BME280;11076;47.942;11.804;2022-12-07T19:23:02;93993.13;;;1.50;100.00
21828;BME280;11076;47.942;11.804;2022-12-07T19:28:04;93987.22;;;1.48;100.00
21828;BME280;11076;47.942;11.804;2022-12-07T19:33:07;93989.09;;;1.31;100.00
21828;BME280;11076;47.942;11.804;2022-12-07T19:38:09;93987.63;;;1.28;100.00
21828;BME280;11076;47.942;11.804;2022-12-07T19:43:11;93979.03;;;1.34;100.00
21828;BME280;11076;47.942;11.804;2022-12-07T19:48:14;93981.59;;;1.19;100.00
21828;BME280;11076;47.942;11.804;2022-12-07T19:53:16;93976.78;;;1.23;100.00
21828;BME280;11076;47.942;11.804;2022-12-07T19:58:18;93977.16;;;1.20;100.00
21828;BME280;11076;47.942;11.804;2022-12-07T20:03:21;93968.97;;;1.07;100.00
21828;BME280;11076;47.942;11.804;2022-12-07T20:08:24;93969.47;;;1.02;100.00
21828;BME280;11076;47.942;11.804;2022-12-07T20:13:27;93975.06;;;0.99;100.00
21828;BME280;11076;47.942;11.804;2022-12-07T20:18:33;93963.72;;;0.98;100.00
21828;BME280;11076;47.942;11.804;2022-12-07T20:23:36;93964.66;;;1.14;100.00
21828;BME280;11076;47.942;11.804;2022-12-07T20:28:39;93961.19;;;1.13;100.00
21828;BME280;11076;47.942;11.804;2022-12-07T20:33:43;93964.00;;;1.12;100.00
21828;BME280;11076;47.942;11.804;2022-12-07T20:38:47;93957.59;;;1.14;100.00
21828;BME280;11076;47.942;11.804;2022-12-07T20:43:49;93965.44;;;1.23;100.00
21828;BME280;11076;47.942;11.804;2022-12-07T20:48:52;93960.97;;;1.23;100.00
21828;BME280;11076;47.942;11.804;2022-12-07T20:53:55;93956.06;;;1.20;100.00
21828;BME280;11076;47.942;11.804;2022-12-07T20:58:59;93951.41;;;1.30;100.00
21828;BME280;11076;47.942;11.804;2022-12-07T21:04:03;93954.78;;;1.16;100.00
21828;BME280;11076;47.942;11.804;2022-12-07T21:09:06;93942.25;;;1.18;100.00
21828;BME280;11076;47.942;11.804;2022-12-07T21:14:08;93936.03;;;1.11;100.00
21828;BME280;11076;47.942;11.804;2022-12-07T21:19:11;93938.56;;;1.27;100.00
21828;BME280;11076;47.942;11.804;2022-12-07T21:24:13;93933.03;;;1.22;100.00
21828;BME280;11076;47.942;11.804;2022-12-07T21:29:15;93927.81;;;1.14;100.00
21828;BME280;11076;47.942;11.804;2022-12-07T21:34:18;93919.59;;;1.09;100.00
21828;BME280;11076;47.942;11.804;2022-12-07T21:39:20;93922.59;;;1.06;100.00
21828;BME280;11076;47.942;11.804;2022-12-07T21:44:22;93925.53;;;1.03;100.00
21828;BME280;11076;47.942;11.804;2022-12-07T21:49:25;93920.59;;;1.08;100.00
21828;BME280;11076;47.942;11.804;2022-12-07T21:54:27;93920.59;;;1.08;100.00
21828;BME280;11076;47.942;11.804;2022-12-07T21:59:30;93921.63;;;0.98;100.00
21828;BME280;11076;47.942;11.804;2022-12-07T22:04:32;93916.84;;;1.02;100.00
21828;BME280;11076;47.942;11.804;2022-12-07T22:09:34;93922.59;;;1.06;100.00
21828;BME280;11076;47.942;11.804;2022-12-07T22:14:37;93920.94;;;1.05;100.00
21828;BME280;11076;47.942;11.804;2022-12-07T22:19:58;93919.25;;;1.12;100.00
21828;BME280;11076;47.942;11.804;2022-12-07T22:25:00;93921.19;;;1.18;100.00
21828;BME280;11076;47.942;11.804;2022-12-07T22:30:07;93910.19;;;1.14;100.00
21828;BME280;11076;47.942;11.804;2022-12-07T22:35:10;93909.22;;;1.15;100.00
21828;BME280;11076;47.942;11.804;2022-12-07T22:40:13;93901.16;;;1.09;100.00
21828;BME280;11076;47.942;11.804;2022-12-07T22:45:15;93907.44;;;1.08;100.00
21828;BME280;11076;47.942;11.804;2022-12-07T22:50:19;93901.16;;;1.09;100.00
21828;BME280;11076;47.942;11.804;2022-12-07T22:55:21;93901.16;;;1.09;100.00
21828;BME280;11076;47.942;11.804;2022-12-07T23:00:23;93894.91;;;1.10;100.00
21828;BME280;11076;47.942;11.804;2022-12-07T23:05:26;93882.13;;;0.98;100.00
21828;BME280;11076;47.942;11.804;2022-12-07T23:10:28;93885.75;;;0.97;100.00
21828;BME280;11076;47.942;11.804;2022-12-07T23:15:34;93888.38;;;0.97;100.00
21828;BME280;11076;47.942;11.804;2022-12-07T23:20:37;93883.59;;;1.01;100.00
21828;BME280;11076;47.942;11.804;2022-12-07T23:25:39;93866.81;;;1.02;100.00
21828;BME280;11076;47.942;11.804;2022-12-07T23:30:41;93869.56;;;1.09;100.00
21828;BME280;11076;47.942;11.804;2022-12-07T23:35:44;93858.34;;;1.15;100.00
21828;BME280;11076;47.942;11.804;2022-12-07T23:40:46;93849.09;;;1.19;100.00
21828;BME280;11076;47.942;11.804;2022-12-07T23:45:49;93845.16;;;1.15;100.00
21828;BME280;11076;47.942;11.804;2022-12-07T23:50:55;93831.09;;;1.08;100.00
21828;BME280;11076;47.942;11.804;2022-12-07T23:55:58;93815.63;;;1.05;100.00
